Time;durP1;ratioP1;P1;durP2;ratioP2;P2;SDS_P1;SDS_P2;PMS_P1;PMS_P2;Temp;Humidity;BMP_temperature;BMP_pressure;BME280_temperature;BME280_humidity;BME280_pressure;Samples;Min_cycle;Max_cycle;Signal;HPM_P1;HPM_P2
2023/08/14 00:00:49;;;;;;;1.10;0.75;;;22.40;99.90;;;;;;5109095;27;47478;-61
2023/08/14 00:03:16;;;;;;;1.65;1.10;;;22.40;99.90;;;;;;5104017;27;45114;-61
2023/08/14 00:05:44;;;;;;;1.45;1.00;;;22.40;99.90;;;;;;5103580;27;45150;-61
2023/08/14 00:08:10;;;;;;;3.55;1.10;;;22.40;99.90;;;;;;5108377;27;45256;-62
2023/08/14 00:10:37;;;;;;;1.67;1.13;;;22.40;99.90;;;;;;5109281;27;47367;-61
2023/08/14 00:13:04;;;;;;;2.40;1.00;;;22.30;99.90;;;;;;5107398;27;45231;-61
2023/08/14 00:15:31;;;;;;;1.73;1.00;;;22.30;99.90;;;;;;5106824;27;45125;-61
2023/08/14 00:17:58;;;;;;;1.40;0.80;;;22.30;99.90;;;;;;5109152;27;45387;-61
2023/08/14 00:20:25;;;;;;;2.47;0.90;;;22.30;99.90;;;;;;5108942;27;45193;-61
2023/08/14 00:22:53;;;;;;;2.25;1.10;;;22.30;99.90;;;;;;5107515;27;46356;-61
2023/08/14 00:25:19;;;;;;;2.20;1.00;;;22.30;99.90;;;;;;5110716;27;45094;-60
2023/08/14 00:27:46;;;;;;;1.13;0.77;;;22.30;99.90;;;;;;5107716;27;45371;-62
2023/08/14 00:30:13;;;;;;;1.33;0.73;;;22.30;99.90;;;;;;5105021;27;48633;-61
2023/08/14 00:32:40;;;;;;;2.03;0.90;;;22.30;99.90;;;;;;5101834;27;45242;-61
2023/08/14 00:35:08;;;;;;;2.03;0.80;;;22.30;99.90;;;;;;5113710;27;45385;-61
2023/08/14 00:37:41;;;;;;;1.27;0.80;;;22.30;99.90;;;;;;5093628;27;45350;-61
2023/08/14 00:40:11;;;;;;;2.10;1.00;;;22.30;99.90;;;;;;5105274;27;46348;-61
2023/08/14 00:42:39;;;;;;;2.28;0.82;;;22.30;99.90;;;;;;5097927;27;45275;-61
2023/08/14 00:45:07;;;;;;;2.13;0.90;;;22.30;99.90;;;;;;5102444;27;45229;-61
2023/08/14 00:47:35;;;;;;;1.85;0.65;;;22.30;99.90;;;;;;5111184;27;45304;-60
2023/08/14 00:50:02;;;;;;;1.35;0.77;;;22.30;99.90;;;;;;5104196;27;45217;-60
2023/08/14 00:52:32;;;;;;;1.73;0.90;;;22.30;99.90;;;;;;5108809;27;45400;-61
2023/08/14 00:55:01;;;;;;;2.28;1.10;;;22.30;99.90;;;;;;5106444;27;45144;-61
2023/08/14 00:57:30;;;;;;;2.78;1.00;;;22.30;99.90;;;;;;5106362;27;45398;-61
2023/08/14 00:59:57;;;;;;;1.45;0.88;;;22.30;99.90;;;;;;5107988;27;47022;-61
2023/08/14 01:02:25;;;;;;;2.30;1.20;;;22.30;99.90;;;;;;5105998;27;45233;-61
2023/08/14 01:04:51;;;;;;;2.22;0.80;;;22.30;99.90;;;;;;5103724;27;45178;-60
2023/08/14 01:07:18;;;;;;;1.38;0.85;;;22.30;99.90;;;;;;5120351;27;45243;-60
2023/08/14 01:09:45;;;;;;;1.92;1.00;;;22.30;99.90;;;;;;5105992;27;48686;-60
2023/08/14 01:12:22;;;;;;;2.05;1.17;;;22.30;99.90;;;;;;5102361;27;45237;-61
2023/08/14 01:14:56;;;;;;;1.98;0.95;;;22.30;99.90;;;;;;5105664;27;45279;-60
2023/08/14 01:17:23;;;;;;;2.15;1.38;;;22.30;99.90;;;;;;5108293;27;45387;-60
2023/08/14 01:19:52;;;;;;;2.47;1.20;;;22.30;99.90;;;;;;5106921;27;45240;-60
2023/08/14 01:22:30;;;;;;;1.40;1.00;;;22.30;99.90;;;;;;5101139;27;45356;-61
2023/08/14 01:25:21;;;;;;;2.25;1.17;;;22.30;99.90;;;;;;5102513;27;45252;-61
2023/08/14 01:27:48;;;;;;;1.95;0.98;;;22.30;99.90;;;;;;5103936;27;45260;-61
2023/08/14 01:30:15;;;;;;;2.47;0.98;;;22.30;99.90;;;;;;5109455;27;45647;-61
2023/08/14 01:32:42;;;;;;;2.72;1.00;;;22.30;99.90;;;;;;5105743;27;45267;-60
2023/08/14 01:35:09;;;;;;;1.58;0.80;;;22.30;99.90;;;;;;5106056;27;45162;-60
2023/08/14 01:37:45;;;;;;;1.55;0.90;;;22.30;99.90;;;;;;5105377;27;45317;-60
2023/08/14 01:40:22;;;;;;;1.15;0.90;;;22.30;99.90;;;;;;5103900;27;47014;-61
2023/08/14 01:42:51;;;;;;;1.50;0.98;;;22.30;99.90;;;;;;5099837;27;45197;-60
2023/08/14 01:45:21;;;;;;;2.00;0.85;;;22.30;99.90;;;;;;5101856;27;45130;-60
2023/08/14 01:47:49;;;;;;;1.58;0.88;;;22.30;99.90;;;;;;5107244;27;45074;-61
2023/08/14 01:50:18;;;;;;;1.70;1.02;;;22.30;99.90;;;;;;5110955;27;45442;-61
2023/08/14 01:52:44;;;;;;;2.63;1.02;;;22.30;99.90;;;;;;5106976;27;45467;-61
2023/08/14 01:55:13;;;;;;;1.90;0.80;;;22.30;99.90;;;;;;5104020;27;45190;-61
2023/08/14 01:57:39;;;;;;;2.35;1.10;;;22.30;99.90;;;;;;5103242;27;45295;-62
2023/08/14 02:00:09;;;;;;;1.40;0.82;;;22.30;99.90;;;;;;5106238;27;46210;-61
2023/08/14 02:02:36;;;;;;;2.72;1.10;;;22.30;99.90;;;;;;5111632;27;45210;-61
2023/08/14 02:05:04;;;;;;;1.45;0.93;;;22.30;99.90;;;;;;5110152;27;45296;-60
2023/08/14 02:07:30;;;;;;;1.58;1.00;;;22.30;99.90;;;;;;5107608;27;45417;-60
2023/08/14 02:09:57;;;;;;;1.95;0.95;;;22.30;99.90;;;;;;5105346;27;46514;-61
2023/08/14 02:12:25;;;;;;;2.53;1.27;;;22.30;99.90;;;;;;5112830;27;45264;-61
2023/08/14 02:14:52;;;;;;;3.83;1.30;;;22.30;99.90;;;;;;5103471;27;45253;-61
2023/08/14 02:17:19;;;;;;;3.35;0.90;;;22.30;99.90;;;;;;5104502;27;45244;-61
2023/08/14 02:19:46;;;;;;;2.45;1.05;;;22.30;99.90;;;;;;5109509;27;47290;-60
2023/08/14 02:22:13;;;;;;;2.53;1.00;;;22.30;99.90;;;;;;5108567;27;45210;-60
2023/08/14 02:24:40;;;;;;;2.28;1.35;;;22.30;99.90;;;;;;5100565;27;45133;-60
2023/08/14 02:27:07;;;;;;;2.22;1.20;;;22.30;99.90;;;;;;5112415;27;45275;-60
2023/08/14 02:29:35;;;;;;;2.45;1.25;;;22.30;99.90;;;;;;5108916;27;47016;-60
2023/08/14 02:32:01;;;;;;;1.70;1.00;;;22.30;99.90;;;;;;5109131;27;45292;-61
2023/08/14 02:34:44;;;;;;;2.15;0.80;;;22.30;99.90;;;;;;5104996;27;45236;-61
2023/08/14 02:37:10;;;;;;;2.97;1.08;;;22.30;99.90;;;;;;5105439;27;45158;-60
2023/08/14 02:39:37;;;;;;;1.33;0.80;;;22.30;99.90;;;;;;5104891;27;46600;-60
2023/08/14 02:42:04;;;;;;;2.28;1.00;;;22.30;99.90;;;;;;5100299;27;45523;-60
2023/08/14 02:44:31;;;;;;;1.55;0.80;;;22.30;99.90;;;;;;5105175;27;45278;-61
2023/08/14 02:46:59;;;;;;;2.25;1.10;;;22.30;99.90;;;;;;5109428;27;45299;-60
2023/08/14 02:49:26;;;;;;;1.38;0.90;;;22.30;99.90;;;;;;5109705;27;45362;-61
2023/08/14 02:51:53;;;;;;;1.75;0.90;;;22.30;99.90;;;;;;5107981;27;46097;-60
2023/08/14 02:54:20;;;;;;;1.15;0.73;;;22.30;99.90;;;;;;5107157;27;45258;-61
2023/08/14 02:56:47;;;;;;;1.42;0.80;;;22.30;99.90;;;;;;5105643;27;45475;-60
2023/08/14 02:59:14;;;;;;;1.90;0.90;;;22.30;99.90;;;;;;5107420;27;46010;-61
2023/08/14 03:01:41;;;;;;;2.17;0.77;;;22.30;99.90;;;;;;5100862;27;45324;-61
2023/08/14 03:04:09;;;;;;;2.45;1.15;;;22.30;99.90;;;;;;5106425;27;45115;-60
2023/08/14 03:06:36;;;;;;;3.35;0.98;;;22.30;99.90;;;;;;5104425;27;45442;-60
2023/08/14 03:09:03;;;;;;;1.50;0.80;;;22.30;99.90;;;;;;5106461;27;45251;-60
2023/08/14 03:11:30;;;;;;;1.73;1.25;;;22.20;99.90;;;;;;5102342;27;45641;-60
2023/08/14 03:13:56;;;;;;;2.22;1.00;;;22.30;99.90;;;;;;5104991;27;45240;-61
2023/08/14 03:16:23;;;;;;;1.48;0.90;;;22.30;99.90;;;;;;5104080;27;45283;-60
2023/08/14 03:18:50;;;;;;;1.65;0.90;;;22.30;99.90;;;;;;5104568;27;45209;-60
2023/08/14 03:21:18;;;;;;;1.35;0.98;;;22.30;99.90;;;;;;5104143;27;45270;-60
2023/08/14 03:23:47;;;;;;;1.60;1.00;;;22.30;99.90;;;;;;5104281;27;45256;-60
2023/08/14 03:26:14;;;;;;;1.95;0.88;;;22.20;99.90;;;;;;5103982;27;45126;-61
2023/08/14 03:28:41;;;;;;;1.45;0.88;;;22.30;99.90;;;;;;5102448;27;45504;-61
2023/08/14 03:31:08;;;;;;;1.15;0.77;;;22.20;99.90;;;;;;5109416;27;45308;-60
2023/08/14 03:33:35;;;;;;;1.75;0.90;;;22.30;99.90;;;;;;5107754;27;45250;-60
2023/08/14 03:36:02;;;;;;;1.10;0.80;;;22.20;99.90;;;;;;5109976;27;45246;-60
2023/08/14 03:38:30;;;;;;;1.55;0.82;;;22.30;99.90;;;;;;5111882;27;46551;-60
2023/08/14 03:40:57;;;;;;;2.30;0.95;;;22.30;99.90;;;;;;5103565;27;45259;-61
2023/08/14 03:43:24;;;;;;;1.20;0.75;;;22.20;99.90;;;;;;5105934;27;45262;-60
2023/08/14 03:45:51;;;;;;;1.40;0.90;;;22.20;99.90;;;;;;5104533;27;45236;-60
2023/08/14 03:48:18;;;;;;;1.20;0.80;;;22.20;99.90;;;;;;5105768;27;46061;-60
2023/08/14 03:50:46;;;;;;;1.40;0.70;;;22.20;99.90;;;;;;5112620;27;45257;-61
2023/08/14 03:53:13;;;;;;;1.20;0.90;;;22.20;99.90;;;;;;5107814;27;45267;-61
2023/08/14 03:55:41;;;;;;;0.82;0.65;;;22.20;99.90;;;;;;5102870;27;45206;-61
2023/08/14 03:58:08;;;;;;;2.63;0.90;;;22.20;99.90;;;;;;5100424;27;46641;-61
2023/08/14 04:00:35;;;;;;;1.52;0.82;;;22.20;99.90;;;;;;5102540;27;45158;-60
2023/08/14 04:03:02;;;;;;;1.52;0.90;;;22.20;99.90;;;;;;5099217;27;45188;-60
2023/08/14 04:05:29;;;;;;;1.10;0.85;;;22.20;99.90;;;;;;5105590;27;45284;-60
2023/08/14 04:07:56;;;;;;;1.40;0.90;;;22.20;99.90;;;;;;5099395;27;48309;-60
2023/08/14 04:10:24;;;;;;;0.82;0.82;;;22.20;99.90;;;;;;5109777;27;45344;-60
2023/08/14 04:12:52;;;;;;;2.38;0.90;;;22.20;99.90;;;;;;5103275;27;45163;-60
2023/08/14 04:15:20;;;;;;;0.98;0.80;;;22.20;99.90;;;;;;5106061;27;45375;-60
2023/08/14 04:17:47;;;;;;;3.05;0.88;;;22.20;99.90;;;;;;5104247;27;45995;-61
2023/08/14 04:20:14;;;;;;;1.58;1.00;;;22.20;99.90;;;;;;5103385;27;45087;-61
2023/08/14 04:22:40;;;;;;;1.45;0.98;;;22.20;99.90;;;;;;5101715;27;45197;-60
2023/08/14 04:25:08;;;;;;;2.60;0.80;;;22.20;99.90;;;;;;5108565;27;45672;-61
2023/08/14 04:27:35;;;;;;;0.90;0.77;;;22.20;99.90;;;;;;5103186;27;47414;-61
2023/08/14 04:30:04;;;;;;;1.02;0.75;;;22.20;99.90;;;;;;5102472;27;45290;-61
2023/08/14 04:32:30;;;;;;;1.20;0.77;;;22.20;99.90;;;;;;5103811;27;45229;-61
2023/08/14 04:34:57;;;;;;;3.20;1.20;;;22.20;99.90;;;;;;5110917;27;45136;-61
2023/08/14 04:37:24;;;;;;;1.83;0.82;;;22.20;99.90;;;;;;5105346;27;45475;-60
2023/08/14 04:39:51;;;;;;;1.05;0.80;;;22.20;99.90;;;;;;5103479;27;45185;-61
2023/08/14 04:42:17;;;;;;;1.30;1.02;;;22.20;99.90;;;;;;5110252;27;45132;-60
2023/08/14 04:44:45;;;;;;;1.52;1.00;;;22.20;99.90;;;;;;5103887;27;45163;-60
2023/08/14 04:47:13;;;;;;;2.22;0.90;;;22.20;99.90;;;;;;5102859;27;47936;-60
2023/08/14 04:49:40;;;;;;;3.45;1.10;;;22.20;99.90;;;;;;5102848;27;45551;-60
2023/08/14 04:52:07;;;;;;;1.35;0.88;;;22.20;99.90;;;;;;5103599;27;45373;-61
2023/08/14 04:54:34;;;;;;;2.15;1.00;;;22.20;99.90;;;;;;5107056;27;45150;-61
2023/08/14 04:57:01;;;;;;;2.13;1.10;;;22.20;99.90;;;;;;5115342;27;46634;-60
2023/08/14 04:59:28;;;;;;;2.75;0.90;;;22.10;99.90;;;;;;5106310;27;45681;-60
2023/08/14 05:01:55;;;;;;;1.48;0.90;;;22.20;99.90;;;;;;5101806;27;45252;-60
2023/08/14 05:04:23;;;;;;;0.90;0.88;;;22.10;99.90;;;;;;5101878;27;45153;-60
2023/08/14 05:06:52;;;;;;;1.95;0.85;;;22.20;99.90;;;;;;5099337;27;46869;-60
2023/08/14 05:09:19;;;;;;;2.35;1.00;;;22.20;99.90;;;;;;5106031;27;45446;-60
2023/08/14 05:11:46;;;;;;;1.15;0.75;;;22.20;99.90;;;;;;5104796;27;45268;-61
2023/08/14 05:14:12;;;;;;;2.15;1.10;;;22.20;99.90;;;;;;5103921;27;45410;-60
2023/08/14 05:16:39;;;;;;;2.70;1.08;;;22.20;99.90;;;;;;5103723;27;46094;-60
2023/08/14 05:19:06;;;;;;;2.70;1.02;;;22.20;99.90;;;;;;5102971;27;45162;-60
2023/08/14 05:21:34;;;;;;;2.58;1.13;;;22.20;99.90;;;;;;5101704;27;45291;-60
2023/08/14 05:24:01;;;;;;;1.73;0.88;;;22.20;99.90;;;;;;5104917;27;45230;-60
2023/08/14 05:26:28;;;;;;;1.30;0.88;;;22.20;99.90;;;;;;5105204;27;47984;-60
2023/08/14 05:28:54;;;;;;;2.10;1.23;;;22.20;99.90;;;;;;5113024;27;45149;-61
2023/08/14 05:31:21;;;;;;;1.83;1.08;;;22.20;99.90;;;;;;5105832;27;45381;-60
2023/08/14 05:33:48;;;;;;;2.05;1.10;;;22.20;99.90;;;;;;5106268;27;45298;-60
2023/08/14 05:36:14;;;;;;;2.42;1.10;;;22.20;99.90;;;;;;5106606;27;47003;-61
2023/08/14 05:38:45;;;;;;;1.73;1.00;;;22.20;99.90;;;;;;5117146;27;45257;-61
2023/08/14 05:41:12;;;;;;;1.60;0.73;;;22.20;99.90;;;;;;5115657;27;45264;-60
2023/08/14 05:43:39;;;;;;;2.85;0.90;;;22.20;99.90;;;;;;5112363;27;45319;-61
2023/08/14 05:46:05;;;;;;;1.50;0.95;;;22.20;99.90;;;;;;5108401;27;46266;-61
2023/08/14 05:48:32;;;;;;;1.77;1.05;;;22.20;99.90;;;;;;5106003;27;45716;-61
2023/08/14 05:50:59;;;;;;;1.88;1.15;;;22.20;99.90;;;;;;5095829;27;45434;-60
2023/08/14 05:53:26;;;;;;;1.75;1.00;;;22.20;99.90;;;;;;5094834;27;45449;-61
2023/08/14 05:55:54;;;;;;;3.53;1.23;;;22.20;99.90;;;;;;5102971;27;46223;-60
2023/08/14 05:58:21;;;;;;;1.50;0.80;;;22.20;99.90;;;;;;5103402;27;45349;-60
2023/08/14 06:00:49;;;;;;;1.67;0.93;;;22.20;99.90;;;;;;5106096;27;45233;-60
2023/08/14 06:03:16;;;;;;;2.53;1.20;;;22.20;99.90;;;;;;5103300;27;45246;-61
2023/08/14 06:05:42;;;;;;;1.08;0.88;;;22.20;99.90;;;;;;5105697;27;47732;-60
2023/08/14 06:08:09;;;;;;;2.47;0.95;;;22.20;99.90;;;;;;5103130;27;45254;-61
2023/08/14 06:10:38;;;;;;;1.77;1.15;;;22.20;99.90;;;;;;5106928;27;45336;-61
2023/08/14 06:13:07;;;;;;;2.70;1.00;;;22.20;99.90;;;;;;5107551;27;45400;-61
2023/08/14 06:15:34;;;;;;;2.67;1.00;;;22.20;99.90;;;;;;5108008;27;46268;-60
2023/08/14 06:18:01;;;;;;;2.53;0.80;;;22.20;99.90;;;;;;5111317;27;45167;-60
2023/08/14 06:20:27;;;;;;;3.60;1.10;;;22.20;99.90;;;;;;5114233;27;45310;-60
2023/08/14 06:22:54;;;;;;;2.35;1.02;;;22.20;99.90;;;;;;5105515;27;45236;-61
2023/08/14 06:25:21;;;;;;;3.45;1.15;;;22.20;99.90;;;;;;5102874;27;46241;-60
2023/08/14 06:27:48;;;;;;;1.55;1.00;;;22.20;99.90;;;;;;5105543;27;45316;-60
2023/08/14 06:30:16;;;;;;;1.73;0.80;;;22.20;99.90;;;;;;5104123;27;45188;-60
2023/08/14 06:32:42;;;;;;;1.67;1.05;;;22.20;99.90;;;;;;5106075;27;45525;-60
2023/08/14 06:35:10;;;;;;;2.22;0.90;;;22.30;99.90;;;;;;5104914;27;46245;-60
2023/08/14 06:37:37;;;;;;;2.38;1.10;;;22.30;99.90;;;;;;5111657;27;45179;-60
2023/08/14 06:40:04;;;;;;;2.35;1.15;;;22.30;99.90;;;;;;5104679;27;45336;-61
2023/08/14 06:42:31;;;;;;;2.65;1.00;;;22.30;99.90;;;;;;5108271;27;45380;-61
2023/08/14 06:44:58;;;;;;;1.88;1.02;;;22.30;99.90;;;;;;5113886;27;45511;-60
2023/08/14 06:47:26;;;;;;;3.35;1.00;;;22.30;99.90;;;;;;5105559;27;45169;-61
2023/08/14 06:49:53;;;;;;;3.53;1.00;;;22.30;99.90;;;;;;5107194;27;45054;-60
2023/08/14 06:52:19;;;;;;;1.35;1.00;;;22.30;99.90;;;;;;5105215;27;45212;-61
2023/08/14 06:54:46;;;;;;;2.20;1.10;;;22.30;99.90;;;;;;5105745;27;46228;-60
2023/08/14 06:57:13;;;;;;;1.92;0.90;;;22.30;99.90;;;;;;5109216;27;45148;-61
2023/08/14 06:59:40;;;;;;;2.47;0.93;;;22.30;99.90;;;;;;5109422;27;45145;-60
2023/08/14 07:02:07;;;;;;;3.13;1.23;;;22.30;99.90;;;;;;5103950;27;45253;-60
2023/08/14 07:04:35;;;;;;;1.60;0.95;;;22.30;99.90;;;;;;5104980;27;46998;-61
2023/08/14 07:07:02;;;;;;;3.50;1.10;;;22.30;99.90;;;;;;5104576;27;45452;-61
2023/08/14 07:09:28;;;;;;;1.63;1.08;;;22.30;99.90;;;;;;5111429;27;45207;-60
2023/08/14 07:11:55;;;;;;;2.17;1.05;;;22.30;99.90;;;;;;5111332;27;45273;-61
2023/08/14 07:14:22;;;;;;;1.48;0.98;;;22.30;99.90;;;;;;5109743;27;47009;-61
2023/08/14 07:16:49;;;;;;;1.60;1.00;;;22.30;99.90;;;;;;5111179;27;45260;-60
2023/08/14 07:19:17;;;;;;;1.48;0.80;;;22.30;99.90;;;;;;5103341;27;45172;-60
2023/08/14 07:21:45;;;;;;;1.52;0.90;;;22.30;99.90;;;;;;5102558;27;45179;-60
2023/08/14 07:24:13;;;;;;;2.05;1.10;;;22.30;99.90;;;;;;5104656;27;47637;-60
2023/08/14 07:26:40;;;;;;;2.00;1.17;;;22.30;99.90;;;;;;5105342;27;45247;-60
2023/08/14 07:29:07;;;;;;;2.08;1.08;;;22.30;99.90;;;;;;5108577;27;45159;-60
2023/08/14 07:31:33;;;;;;;1.42;0.93;;;22.30;99.90;;;;;;5106273;27;45294;-60
2023/08/14 07:34:00;;;;;;;3.38;1.10;;;22.30;99.90;;;;;;5102941;27;47273;-61
2023/08/14 07:36:27;;;;;;;2.13;1.13;;;22.30;99.90;;;;;;5102232;27;45106;-60
2023/08/14 07:38:55;;;;;;;2.00;1.13;;;22.30;99.90;;;;;;5099308;27;45295;-60
2023/08/14 07:41:22;;;;;;;3.40;1.00;;;22.30;99.90;;;;;;5105477;27;45351;-61
2023/08/14 07:43:49;;;;;;;1.80;0.93;;;22.40;99.90;;;;;;5104000;27;46227;-61
2023/08/14 07:46:17;;;;;;;1.05;0.90;;;22.30;99.90;;;;;;5102695;27;45184;-60
2023/08/14 07:48:43;;;;;;;1.08;0.90;;;22.30;99.90;;;;;;5103147;27;45284;-61
2023/08/14 07:51:10;;;;;;;1.85;1.00;;;22.30;99.90;;;;;;5104530;27;45357;-60
2023/08/14 07:53:37;;;;;;;1.75;0.93;;;22.40;99.90;;;;;;5101229;27;45468;-61
2023/08/14 07:56:05;;;;;;;1.52;0.90;;;22.40;99.90;;;;;;5106585;27;45450;-61
2023/08/14 07:58:32;;;;;;;2.17;1.23;;;22.40;99.90;;;;;;5104240;27;45170;-61
2023/08/14 08:00:59;;;;;;;1.67;1.00;;;22.40;99.90;;;;;;5101291;27;45350;-61
2023/08/14 08:03:26;;;;;;;2.38;1.10;;;22.30;99.90;;;;;;5102647;27;47630;-61
2023/08/14 08:05:53;;;;;;;1.80;1.15;;;22.40;99.90;;;;;;5103664;27;45323;-61
2023/08/14 08:08:19;;;;;;;2.88;1.08;;;22.40;99.90;;;;;;5105677;27;45276;-61
2023/08/14 08:10:46;;;;;;;2.55;1.00;;;22.40;99.90;;;;;;5105528;27;45365;-60
2023/08/14 08:13:14;;;;;;;1.27;0.73;;;22.40;99.90;;;;;;5099992;27;45156;-61
2023/08/14 08:15:41;;;;;;;1.33;0.93;;;22.40;99.90;;;;;;5100397;27;45330;-60
2023/08/14 08:18:08;;;;;;;2.15;0.80;;;22.40;99.90;;;;;;5099762;27;45429;-60
2023/08/14 08:20:35;;;;;;;2.45;0.90;;;22.40;99.90;;;;;;5103788;27;45390;-60
2023/08/14 08:23:02;;;;;;;0.80;0.65;;;22.40;99.90;;;;;;5104457;27;47118;-61
2023/08/14 08:25:30;;;;;;;1.50;0.90;;;22.40;99.90;;;;;;5102410;27;45426;-61
2023/08/14 08:27:57;;;;;;;0.98;0.80;;;22.40;99.90;;;;;;5105142;27;45261;-61
2023/08/14 08:30:25;;;;;;;0.73;0.70;;;22.40;99.90;;;;;;5103411;27;45263;-60
2023/08/14 08:32:52;;;;;;;1.77;0.82;;;22.40;99.90;;;;;;5104719;27;46127;-61
2023/08/14 08:35:19;;;;;;;1.52;1.10;;;22.40;99.90;;;;;;5104730;27;45184;-61
2023/08/14 08:37:45;;;;;;;1.65;0.88;;;22.40;99.90;;;;;;5106824;27;45064;-60
2023/08/14 08:40:12;;;;;;;1.35;0.80;;;22.40;99.90;;;;;;5096919;27;45445;-60
2023/08/14 08:42:40;;;;;;;3.75;1.10;;;22.50;99.90;;;;;;5099299;27;45519;-61
2023/08/14 08:45:10;;;;;;;2.38;0.95;;;22.50;99.90;;;;;;5103442;27;45208;-60
2023/08/14 08:47:39;;;;;;;6.05;1.30;;;22.50;99.90;;;;;;5104676;27;45305;-60
2023/08/14 08:50:07;;;;;;;3.45;1.08;;;22.60;99.90;;;;;;5102042;27;45304;-67
2023/08/14 08:52:35;;;;;;;4.80;1.55;;;22.60;99.90;;;;;;5102129;27;46306;-67
2023/08/14 08:55:03;;;;;;;3.65;1.20;;;22.40;99.90;;;;;;5104457;27;45487;-68
2023/08/14 08:57:30;;;;;;;10.85;2.20;;;22.40;99.90;;;;;;5103251;27;45226;-68
2023/08/14 08:59:59;;;;;;;5.70;1.63;;;22.30;99.90;;;;;;5110463;27;45181;-68
2023/08/14 09:02:26;;;;;;;2.72;1.25;;;22.30;99.90;;;;;;5107505;27;46545;-69
2023/08/14 09:04:54;;;;;;;3.35;1.02;;;22.20;99.90;;;;;;5103563;27;45196;-68
2023/08/14 09:07:21;;;;;;;2.50;1.05;;;22.30;99.90;;;;;;5103301;27;45165;-68
2023/08/14 09:09:48;;;;;;;4.65;1.15;;;22.30;99.90;;;;;;5094444;27;45249;-69
2023/08/14 09:12:14;;;;;;;2.95;1.00;;;22.30;99.90;;;;;;5107742;27;45195;-68
2023/08/14 09:14:43;;;;;;;7.60;1.30;;;22.30;99.90;;;;;;5099347;27;45367;-68
2023/08/14 09:17:11;;;;;;;2.58;0.90;;;22.30;99.90;;;;;;5110641;27;45122;-68
2023/08/14 09:19:40;;;;;;;3.05;0.98;;;22.30;99.90;;;;;;5104761;27;45260;-69
2023/08/14 09:22:08;;;;;;;2.15;1.00;;;22.40;99.90;;;;;;5098556;27;46846;-68
2023/08/14 09:24:36;;;;;;;1.88;0.70;;;22.40;99.90;;;;;;5095043;27;45168;-68
2023/08/14 09:27:04;;;;;;;0.88;0.70;;;22.40;99.90;;;;;;5090267;27;45109;-68
2023/08/14 09:29:34;;;;;;;1.67;0.85;;;22.40;99.90;;;;;;5093853;27;45436;-69
2023/08/14 09:32:02;;;;;;;2.38;0.90;;;22.40;99.90;;;;;;5096173;27;46397;-69
2023/08/14 09:34:30;;;;;;;1.20;0.90;;;22.40;99.90;;;;;;5101452;27;45173;-68
2023/08/14 09:36:58;;;;;;;1.27;0.80;;;22.40;99.90;;;;;;5098306;27;45225;-68
2023/08/14 09:39:26;;;;;;;2.30;0.75;;;22.40;99.90;;;;;;5102470;27;45477;-68
2023/08/14 09:41:53;;;;;;;2.10;0.73;;;22.40;99.90;;;;;;5104466;27;46996;-69
2023/08/14 09:44:21;;;;;;;4.68;1.02;;;22.40;99.90;;;;;;5106435;27;45330;-68
2023/08/14 09:46:51;;;;;;;3.35;0.82;;;22.40;99.90;;;;;;5107178;27;45158;-68
2023/08/14 09:49:18;;;;;;;3.92;1.08;;;22.40;99.90;;;;;;5111130;27;45288;-68
2023/08/14 09:51:55;;;;;;;1.77;1.00;;;22.40;99.90;;;;;;5103286;27;46228;-68
2023/08/14 09:54:31;;;;;;;2.88;1.00;;;22.40;99.90;;;;;;5104977;27;45166;-68
2023/08/14 09:57:00;;;;;;;4.25;0.98;;;22.50;99.90;;;;;;5101868;27;45405;-68
2023/08/14 09:59:26;;;;;;;2.35;0.90;;;22.40;99.90;;;;;;5101577;27;45260;-69
2023/08/14 10:01:54;;;;;;;3.33;1.10;;;22.40;99.90;;;;;;5100599;27;47749;-68
2023/08/14 10:04:24;;;;;;;2.10;0.95;;;22.40;99.90;;;;;;5103178;27;45397;-69
2023/08/14 10:06:52;;;;;;;1.85;1.00;;;22.40;99.90;;;;;;5094162;27;45161;-68
2023/08/14 10:09:22;;;;;;;1.58;0.90;;;22.40;99.90;;;;;;5100467;27;45181;-68
2023/08/14 10:11:52;;;;;;;1.88;0.93;;;22.40;99.90;;;;;;5093225;27;45366;-68
2023/08/14 10:14:21;;;;;;;2.03;1.00;;;22.40;99.90;;;;;;5093863;27;45368;-69
2023/08/14 10:16:51;;;;;;;1.58;0.90;;;22.50;99.90;;;;;;5103306;27;45307;-68
2023/08/14 10:19:21;;;;;;;2.17;1.10;;;22.40;99.90;;;;;;5106285;27;45178;-68
2023/08/14 10:21:53;;;;;;;5.88;1.45;;;22.50;99.90;;;;;;5087959;27;45306;-69
2023/08/14 10:24:22;;;;;;;3.08;0.88;;;22.50;99.90;;;;;;5091125;27;45708;-68
2023/08/14 10:26:49;;;;;;;4.07;1.38;;;22.50;99.90;;;;;;5098111;27;45186;-68
2023/08/14 10:29:17;;;;;;;10.27;1.58;;;22.50;99.90;;;;;;5104648;27;45321;-68
2023/08/14 10:31:46;;;;;;;2.75;1.02;;;22.50;99.90;;;;;;5098969;27;45252;-68
2023/08/14 10:34:14;;;;;;;3.67;1.13;;;22.50;99.90;;;;;;5101286;27;45199;-69
2023/08/14 10:36:40;;;;;;;5.38;1.45;;;22.60;99.90;;;;;;5100573;27;45227;-68
2023/08/14 10:39:08;;;;;;;2.38;1.20;;;22.60;99.90;;;;;;5107702;27;45457;-69
2023/08/14 10:41:35;;;;;;;3.30;0.98;;;22.60;99.90;;;;;;5098936;27;46493;-68
2023/08/14 10:44:06;;;;;;;2.13;1.00;;;22.60;99.90;;;;;;5098753;27;45153;-68
2023/08/14 10:46:38;;;;;;;2.20;1.10;;;22.60;99.90;;;;;;5097901;27;45305;-68
2023/08/14 10:49:05;;;;;;;2.10;1.05;;;22.60;99.90;;;;;;5104403;27;45438;-69
2023/08/14 10:51:33;;;;;;;5.20;1.20;;;22.70;99.90;;;;;;5106219;27;47230;-68
2023/08/14 10:54:10;;;;;;;3.60;1.20;;;22.60;99.90;;;;;;5108568;27;45213;-66
2023/08/14 10:56:45;;;;;;;1.38;0.90;;;22.70;99.90;;;;;;5109049;27;45220;-68
2023/08/14 10:59:23;;;;;;;2.03;1.13;;;22.70;99.90;;;;;;5105442;27;45415;-69
2023/08/14 11:01:52;;;;;;;1.40;0.90;;;22.80;99.90;;;;;;5110821;27;47458;-69
2023/08/14 11:04:19;;;;;;;9.85;1.58;;;22.70;99.90;;;;;;5100900;27;45179;-69
2023/08/14 11:07:02;;;;;;;6.90;1.65;;;22.80;99.90;;;;;;5104590;27;45126;-68
2023/08/14 11:09:32;;;;;;;3.83;1.17;;;22.70;99.90;;;;;;5102511;27;45374;-68
2023/08/14 11:12:02;;;;;;;2.97;1.35;;;22.70;99.90;;;;;;5100097;27;46519;-68
2023/08/14 11:14:29;;;;;;;3.05;1.45;;;22.70;99.90;;;;;;5113207;27;45259;-69
2023/08/14 11:16:58;;;;;;;2.53;0.98;;;22.70;99.90;;;;;;5096614;27;45212;-69
2023/08/14 11:19:25;;;;;;;3.45;1.08;;;22.80;99.90;;;;;;5109558;27;45541;-70
2023/08/14 11:21:52;;;;;;;1.25;0.80;;;22.80;99.90;;;;;;5111351;27;46244;-69
2023/08/14 11:24:19;;;;;;;4.50;1.08;;;22.80;99.90;;;;;;5105266;27;45140;-69
2023/08/14 11:26:45;;;;;;;3.30;1.05;;;22.80;99.90;;;;;;5109289;27;45253;-70
2023/08/14 11:29:12;;;;;;;1.67;0.77;;;22.80;99.90;;;;;;5110808;27;45266;-70
2023/08/14 11:31:43;;;;;;;1.77;1.10;;;22.80;99.90;;;;;;5107868;27;46350;-69
2023/08/14 11:34:11;;;;;;;1.90;1.05;;;22.80;99.90;;;;;;5116003;27;45818;-68
2023/08/14 11:36:41;;;;;;;2.47;1.13;;;22.80;99.90;;;;;;5104960;27;45250;-70
2023/08/14 11:39:08;;;;;;;3.17;1.00;;;22.80;99.90;;;;;;5105337;27;45158;-70
2023/08/14 11:41:35;;;;;;;2.22;1.00;;;22.80;99.90;;;;;;5100124;27;47177;-70
2023/08/14 11:44:03;;;;;;;2.60;0.95;;;22.80;99.90;;;;;;5103748;27;45125;-70
2023/08/14 11:46:30;;;;;;;3.45;1.02;;;22.80;99.90;;;;;;5103893;27;45140;-69
2023/08/14 11:48:56;;;;;;;3.08;1.10;;;22.80;99.90;;;;;;5097053;27;45145;-69
2023/08/14 11:51:25;;;;;;;4.68;1.13;;;22.80;99.90;;;;;;5105899;27;45222;-70
2023/08/14 11:53:51;;;;;;;1.88;0.90;;;22.80;99.90;;;;;;5099829;27;45227;-68
2023/08/14 11:56:18;;;;;;;4.82;1.15;;;22.80;99.90;;;;;;5105008;27;45103;-68
2023/08/14 11:58:46;;;;;;;1.92;0.95;;;22.80;99.90;;;;;;5104582;27;45450;-68
2023/08/14 12:01:13;;;;;;;2.67;1.10;;;22.80;99.90;;;;;;5102845;27;46283;-69
2023/08/14 12:03:41;;;;;;;1.52;0.77;;;22.80;99.90;;;;;;5109947;27;45398;-69
2023/08/14 12:06:07;;;;;;;0.57;0.57;;;22.80;99.90;;;;;;5109051;27;45376;-69
2023/08/14 12:08:36;;;;;;;1.90;0.65;;;22.80;99.90;;;;;;5110987;27;45475;-69
2023/08/14 12:11:02;;;;;;;1.65;0.90;;;22.80;99.90;;;;;;5106551;27;48355;-69
2023/08/14 12:13:33;;;;;;;1.52;0.90;;;22.80;99.90;;;;;;5108886;27;45276;-69
2023/08/14 12:16:06;;;;;;;1.58;1.00;;;22.80;99.90;;;;;;5107034;27;45150;-68
2023/08/14 12:18:33;;;;;;;2.10;0.80;;;22.80;99.90;;;;;;5118214;27;45223;-69
2023/08/14 12:21:00;;;;;;;1.00;0.82;;;22.80;99.90;;;;;;5102300;27;45399;-69
2023/08/14 12:23:27;;;;;;;1.58;0.90;;;22.70;99.90;;;;;;5103179;27;45710;-68
2023/08/14 12:25:55;;;;;;;1.10;0.80;;;22.70;99.90;;;;;;5107541;27;45392;-69
2023/08/14 12:28:22;;;;;;;1.90;0.80;;;22.80;99.90;;;;;;5105528;27;45089;-69
2023/08/14 12:30:49;;;;;;;2.22;0.93;;;22.80;99.90;;;;;;5106057;27;45171;-69
2023/08/14 12:33:16;;;;;;;1.90;1.00;;;22.80;99.90;;;;;;5105834;27;45171;-69
2023/08/14 12:35:43;;;;;;;2.40;0.90;;;22.70;99.90;;;;;;5103513;27;45377;-69
2023/08/14 12:38:10;;;;;;;1.95;0.70;;;22.70;99.90;;;;;;5095098;27;45105;-69
2023/08/14 12:40:37;;;;;;;2.25;0.90;;;22.80;99.90;;;;;;5103069;27;46665;-68
2023/08/14 12:43:05;;;;;;;2.75;0.88;;;22.70;99.90;;;;;;5102047;27;45131;-69
2023/08/14 12:45:32;;;;;;;1.25;0.82;;;22.80;99.90;;;;;;5105734;27;45268;-69
2023/08/14 12:47:59;;;;;;;1.27;0.80;;;22.80;99.90;;;;;;5110459;27;45157;-68
2023/08/14 12:50:26;;;;;;;0.95;0.80;;;22.70;99.90;;;;;;5105643;27;46316;-69